Time;durP1;ratioP1;P1;durP2;ratioP2;P2;SDS_P1;SDS_P2;PMS_P1;PMS_P2;Temp;Humidity;BMP_temperature;BMP_pressure;BME280_temperature;BME280_humidity;BME280_pressure;Samples;Min_cycle;Max_cycle;Signal;HPM_P1;HPM_P2
2023/03/21 00:01:02;;;;;;;101.20;90.70;;;;;;;8.30;93.32;97839.55;108974;1284;22284;-84
2023/03/21 00:03:32;;;;;;;93.10;84.00;;;;;;;8.21;93.26;97835.02;108951;1275;22225;-84
2023/03/21 00:06:05;;;;;;;85.80;77.50;;;;;;;8.18;93.64;97834.25;108988;1295;22233;-84
2023/03/21 00:08:33;;;;;;;83.90;75.70;;;;;;;8.17;94.16;97829.42;109017;1295;22990;-83
2023/03/21 00:11:04;;;;;;;81.80;74.00;;;;;;;8.15;94.26;97827.52;109000;1295;23037;-83
2023/03/21 00:13:37;;;;;;;78.50;71.30;;;;;;;8.17;94.53;97828.52;109095;1295;22203;-83
2023/03/21 00:16:14;;;;;;;76.60;69.40;;;;;;;8.11;95.11;97824.83;109136;1295;22196;-84
2023/03/21 00:19:25;;;;;;;75.50;68.60;;;;;;;8.08;95.16;97819.86;109108;1295;22257;-85
2023/03/21 00:21:54;;;;;;;69.20;63.10;;;;;;;8.05;95.32;97814.89;108988;1295;22139;-85
2023/03/21 00:24:35;;;;;;;71.20;64.30;;;;;;;8.04;95.58;97814.76;109050;1295;22859;-85
2023/03/21 00:27:04;;;;;;;71.60;65.00;;;;;;;8.03;95.50;97810.91;108887;1292;22212;-84
2023/03/21 00:29:55;;;;;;;66.70;60.70;;;;;;;8.06;95.43;97806.79;109004;1295;22150;-84
2023/03/21 00:32:23;;;;;;;70.90;64.40;;;;;;;8.05;95.55;97808.40;108989;1289;22120;-84
2023/03/21 00:34:51;;;;;;;70.90;64.60;;;;;;;8.04;95.83;97809.27;108927;1295;22217;-83
2023/03/21 00:37:39;;;;;;;67.90;61.90;;;;;;;8.02;95.80;97807.86;109013;1295;22969;-84
2023/03/21 00:40:11;;;;;;;68.90;62.70;;;;;;;8.01;96.12;97802.39;109017;1295;22194;-84
2023/03/21 00:42:51;;;;;;;69.40;63.10;;;;;;;8.01;95.96;97802.39;109422;1295;22360;-82
2023/03/21 00:45:20;;;;;;;66.90;61.10;;;;;;;8.04;95.92;97804.08;109507;1295;22201;-84
2023/03/21 00:47:49;;;;;;;66.70;60.40;;;;;;;8.06;96.05;97802.23;109536;1295;21968;-84
2023/03/21 00:50:17;;;;;;;70.80;64.40;;;;;;;8.08;95.71;97800.42;109363;1295;22856;-85
2023/03/21 00:52:45;;;;;;;70.50;64.50;;;;;;;8.10;95.78;97799.45;109035;1295;22273;-84
2023/03/21 00:55:15;;;;;;;69.20;62.90;;;;;;;8.08;95.99;97800.38;109024;1295;22203;-84
2023/03/21 00:57:44;;;;;;;67.60;61.30;;;;;;;8.09;96.27;97802.41;108952;1295;22720;-84
2023/03/21 01:00:19;;;;;;;67.50;61.40;;;;;;;8.07;96.17;97797.65;109001;1295;22122;-84
2023/03/21 01:02:57;;;;;;;65.60;60.10;;;;;;;8.11;96.05;97798.73;109004;1295;22123;-84
2023/03/21 01:08:24;;;;;;;65.90;60.20;;;;;;;8.12;96.47;97800.56;108979;1295;22246;-84
2023/03/21 01:11:05;;;;;;;63.40;57.90;;;;;;;8.11;96.54;97797.84;109001;1284;22228;-84
2023/03/21 01:13:34;;;;;;;63.60;58.00;;;;;;;8.08;96.28;97796.09;108899;1295;22267;-84
2023/03/21 01:16:08;;;;;;;60.60;55.50;;;;;;;8.11;96.30;97797.13;109001;1295;22209;-85
2023/03/21 01:18:38;;;;;;;57.50;52.50;;;;;;;8.13;96.98;97796.63;108973;1295;22822;-84
2023/03/21 01:21:10;;;;;;;56.50;51.60;;;;;;;8.11;97.84;97800.02;108964;1295;22276;-83
2023/03/21 01:23:40;;;;;;;60.90;55.70;;;;;;;8.11;98.07;97798.53;108907;1295;22236;-84
2023/03/21 01:26:09;;;;;;;59.30;54.30;;;;;;;8.09;98.30;97797.65;108899;1295;22239;-83
2023/03/21 01:28:40;;;;;;;59.30;54.10;;;;;;;8.04;98.10;97794.52;108884;1295;22853;-84
2023/03/21 01:31:11;;;;;;;59.20;54.10;;;;;;;8.04;98.30;97796.03;108954;1295;22249;-83
2023/03/21 01:33:39;;;;;;;60.00;54.90;;;;;;;8.02;99.26;97794.48;108889;1295;22243;-83
2023/03/21 01:36:14;;;;;;;58.90;53.70;;;;;;;7.98;98.89;97790.98;108890;1295;23068;-84
2023/03/21 01:38:43;;;;;;;61.20;55.90;;;;;;;8.01;99.26;97793.96;108901;1295;22161;-83
2023/03/21 01:41:24;;;;;;;60.90;55.50;;;;;;;7.99;99.02;97794.80;109089;1295;23012;-83
2023/03/21 01:44:04;;;;;;;63.00;57.60;;;;;;;7.99;98.55;97792.80;108887;1295;22190;-83
2023/03/21 01:46:48;;;;;;;64.20;58.80;;;;;;;8.01;98.82;97795.30;108906;1286;22287;-83
2023/03/21 01:49:49;;;;;;;66.20;60.60;;;;;;;7.99;99.08;97795.10;108945;1295;22922;-83
2023/03/21 01:52:40;;;;;;;63.70;58.20;;;;;;;7.96;99.60;97793.42;108958;1295;22233;-84
2023/03/21 01:55:16;;;;;;;60.90;55.70;;;;;;;7.94;99.48;97791.02;109114;1295;23093;-84
2023/03/21 01:57:55;;;;;;;59.10;53.90;;;;;;;7.92;99.49;97793.35;108903;1295;22212;-84
2023/03/21 02:00:59;;;;;;;60.80;55.40;;;;;;;7.95;100.00;97795.05;108913;1295;22895;-86
2023/03/21 02:03:36;;;;;;;59.50;54.40;;;;;;;7.93;100.00;97792.59;108885;1295;22259;-87
2023/03/21 02:06:37;;;;;;;60.00;54.90;;;;;;;7.92;100.00;97793.35;108981;1295;22163;-86
2023/03/21 02:09:24;;;;;;;63.60;58.10;;;;;;;7.91;100.00;97794.88;109117;1295;22946;-88
2023/03/21 02:11:54;;;;;;;60.80;55.70;;;;;;;7.92;100.00;97794.54;108902;1295;22198;-86
2023/03/21 02:14:22;;;;;;;61.40;56.50;;;;;;;7.92;100.00;97794.11;109113;1295;22842;-87
2023/03/21 02:17:19;;;;;;;59.60;54.30;;;;;;;7.91;100.00;97796.42;108733;1295;22299;-87
2023/03/21 02:20:26;;;;;;;59.90;54.80;;;;;;;7.92;100.00;97797.92;108926;1295;22269;-87
2023/03/21 02:22:54;;;;;;;55.80;51.00;;;;;;;7.91;100.00;97792.45;108894;1295;22245;-87
2023/03/21 02:25:58;;;;;;;51.40;47.00;;;;;;;7.91;100.00;97798.02;108970;1295;22173;-87
2023/03/21 02:28:39;;;;;;;53.50;49.00;;;;;;;7.90;100.00;97793.11;108908;1295;22223;-87
2023/03/21 02:31:07;;;;;;;52.30;48.00;;;;;;;7.87;100.00;97794.26;108970;1295;23443;-88
2023/03/21 02:33:35;;;;;;;51.60;47.00;;;;;;;7.86;100.00;97793.58;108989;1295;22175;-88
2023/03/21 02:36:17;;;;;;;47.40;43.40;;;;;;;7.85;100.00;97792.89;109137;1295;22235;-87
2023/03/21 02:39:22;;;;;;;49.10;45.00;;;;;;;7.84;100.00;97791.29;108905;1295;22185;-85
2023/03/21 02:42:04;;;;;;;46.60;42.70;;;;;;;7.82;100.00;97790.45;109110;1295;22197;-87
2023/03/21 02:44:49;;;;;;;45.50;41.60;;;;;;;7.83;100.00;97789.05;109098;1295;22718;-86
2023/03/21 02:47:34;;;;;;;46.40;42.50;;;;;;;7.82;100.00;97789.16;108892;1295;22267;-87
2023/03/21 02:50:17;;;;;;;44.30;40.40;;;;;;;7.82;100.00;97791.09;108881;1295;22618;-85
2023/03/21 02:52:47;;;;;;;42.90;39.10;;;;;;;7.80;100.00;97787.09;108900;1295;22326;-88
2023/03/21 02:55:23;;;;;;;42.20;38.50;;;;;;;7.78;100.00;97784.69;108990;1295;22167;-87
2023/03/21 02:57:57;;;;;;;42.20;38.60;;;;;;;7.79;100.00;97787.30;108903;1295;22175;-88
2023/03/21 03:00:39;;;;;;;44.60;40.80;;;;;;;7.83;100.00;97790.39;109127;1295;22203;-86
2023/03/21 03:03:07;;;;;;;40.40;36.90;;;;;;;7.85;100.00;97791.77;108909;1295;22297;-86
2023/03/21 03:05:54;;;;;;;43.70;39.90;;;;;;;7.85;100.00;97792.58;108925;1295;21788;-86
2023/03/21 03:08:59;;;;;;;43.30;39.60;;;;;;;7.83;100.00;97786.35;108953;1295;22141;-83
2023/03/21 03:11:38;;;;;;;42.40;38.90;;;;;;;7.86;100.00;97788.91;108413;1301;22267;-85
2023/03/21 03:14:31;;;;;;;43.20;39.30;;;;;;;7.83;100.00;97784.64;108335;1301;22204;-85
2023/03/21 03:17:42;;;;;;;47.10;43.20;;;;;;;7.83;100.00;97790.18;108246;1301;22951;-86
2023/03/21 03:20:30;;;;;;;50.40;45.90;;;;;;;7.86;100.00;97792.98;108440;1301;22282;-85
2023/03/21 03:23:17;;;;;;;62.80;57.20;;;;;;;7.84;100.00;97793.16;108503;1301;22180;-85
2023/03/21 03:26:01;;;;;;;63.40;57.90;;;;;;;7.89;100.00;97795.81;108302;1301;22875;-84
2023/03/21 03:28:35;;;;;;;66.30;60.60;;;;;;;7.90;100.00;97795.58;108402;1301;22285;-86
2023/03/21 03:31:11;;;;;;;66.20;60.30;;;;;;;7.91;100.00;97798.09;108289;1301;22244;-87
2023/03/21 03:33:49;;;;;;;68.70;62.70;;;;;;;7.90;100.00;97795.73;108401;1301;23052;-87
2023/03/21 03:36:20;;;;;;;72.10;65.70;;;;;;;7.94;100.00;97795.32;108366;1301;22965;-87
2023/03/21 03:39:07;;;;;;;70.50;64.50;;;;;;;7.96;100.00;97790.30;108399;1301;22217;-86
2023/03/21 03:41:40;;;;;;;;;;;;;;;7.96;100.00;97786.92;108402;1295;23150;-86
2023/03/21 03:44:32;;;;;;;72.20;65.90;;;;;;;7.91;100.00;97788.96;108319;1301;22291;-85
2023/03/21 03:47:08;;;;;;;61.10;55.50;;;;;;;7.89;100.00;97788.40;108931;1295;22816;-85
2023/03/21 03:49:59;;;;;;;62.80;57.30;;;;;;;7.87;100.00;97781.98;108903;1295;22196;-86
2023/03/21 03:52:32;;;;;;;55.80;51.00;;;;;;;7.86;100.00;97780.21;108964;1295;22088;-86
2023/03/21 03:55:11;;;;;;;55.30;50.50;;;;;;;7.86;100.00;97779.05;109162;1295;22290;-85
2023/03/21 03:57:40;;;;;;;54.80;50.00;;;;;;;7.81;100.00;97781.98;108952;1296;22222;-85
2023/03/21 04:00:12;;;;;;;52.70;48.00;;;;;;;7.79;100.00;97781.05;108943;1295;22970;-85
2023/03/21 04:02:48;;;;;;;55.10;50.30;;;;;;;7.74;100.00;97779.75;108957;1295;22189;-85
2023/03/21 04:05:20;;;;;;;51.80;47.40;;;;;;;7.69;100.00;97783.42;108965;1295;22751;-86
2023/03/21 04:07:51;;;;;;;49.80;45.40;;;;;;;7.68;100.00;97781.45;109060;1295;22096;-85
2023/03/21 04:10:25;;;;;;;52.90;48.30;;;;;;;7.66;100.00;97776.60;109168;1295;22277;-85
2023/03/21 04:12:54;;;;;;;50.50;46.00;;;;;;;7.64;100.00;97777.85;109158;1295;22165;-85
2023/03/21 04:15:30;;;;;;;48.90;44.80;;;;;;;7.64;100.00;97781.22;108974;1295;22983;-85
2023/03/21 04:18:04;;;;;;;46.40;42.40;;;;;;;7.63;100.00;97788.31;109178;1295;22139;-86
2023/03/21 04:20:32;;;;;;;42.90;39.20;;;;;;;7.61;100.00;97789.14;108952;1295;22485;-87
2023/03/21 04:23:05;;;;;;;43.60;39.80;;;;;;;7.59;100.00;97794.04;108975;1295;22821;-87
2023/03/21 04:25:33;;;;;;;47.90;43.70;;;;;;;7.56;100.00;97791.55;109043;1295;22268;-86
2023/03/21 04:28:05;;;;;;;48.90;44.70;;;;;;;7.54;100.00;97795.75;108993;1295;22890;-86
2023/03/21 04:30:38;;;;;;;50.00;45.60;;;;;;;7.56;100.00;97791.71;109170;1295;22164;-86
2023/03/21 04:33:13;;;;;;;47.60;43.60;;;;;;;7.55;100.00;97787.73;109050;1295;22133;-86
2023/03/21 04:35:45;;;;;;;51.80;47.40;;;;;;;7.50;100.00;97789.71;108958;1295;22927;-85
2023/03/21 04:38:13;;;;;;;48.10;43.80;;;;;;;7.48;100.00;97784.92;109149;1295;22200;-85
2023/03/21 04:40:41;;;;;;;51.70;47.30;;;;;;;7.47;100.00;97786.57;108731;1296;22118;-85
2023/03/21 04:43:09;;;;;;;56.10;51.30;;;;;;;7.47;100.00;97779.92;108962;1295;22077;-84
2023/03/21 04:45:39;;;;;;;50.60;46.30;;;;;;;7.50;100.00;97783.33;108964;1295;22770;-85
2023/03/21 04:48:08;;;;;;;48.60;44.40;;;;;;;7.52;100.00;97782.04;108983;1295;22204;-85
2023/03/21 04:50:36;;;;;;;48.50;44.20;;;;;;;7.50;100.00;97777.33;108934;1295;22214;-85
2023/03/21 04:53:04;;;;;;;50.00;45.60;;;;;;;7.51;100.00;97781.83;108972;1295;22144;-85
2023/03/21 04:55:32;;;;;;;48.00;44.00;;;;;;;7.51;100.00;97785.05;109044;1292;22303;-85
2023/03/21 04:58:00;;;;;;;50.40;46.40;;;;;;;7.52;100.00;97786.20;108942;1295;22278;-86
2023/03/21 05:00:29;;;;;;;49.70;45.60;;;;;;;7.54;100.00;97788.13;109001;1295;22234;-85
2023/03/21 05:02:57;;;;;;;51.80;47.40;;;;;;;7.52;100.00;97787.88;109069;1295;22116;-87
2023/03/21 05:05:25;;;;;;;48.80;44.50;;;;;;;7.55;100.00;97792.41;109035;1295;22251;-86
2023/03/21 05:07:54;;;;;;;50.80;46.50;;;;;;;7.52;100.00;97794.38;109082;1295;22122;-84
2023/03/21 05:10:23;;;;;;;52.90;48.50;;;;;;;7.51;100.00;97796.20;109203;1295;22213;-84
2023/03/21 05:12:51;;;;;;;49.60;45.20;;;;;;;7.52;100.00;97799.03;108986;1295;22879;-86
2023/03/21 05:15:19;;;;;;;46.00;42.20;;;;;;;7.50;100.00;97796.86;109153;1295;22225;-86
2023/03/21 05:17:49;;;;;;;50.20;45.90;;;;;;;7.46;100.00;97797.20;108980;1292;22230;-84
2023/03/21 05:20:18;;;;;;;46.80;42.80;;;;;;;7.45;100.00;97794.95;109143;1295;22975;-82
2023/03/21 05:22:49;;;;;;;50.70;46.30;;;;;;;7.44;100.00;97792.82;108951;1295;22275;-83
2023/03/21 05:25:33;;;;;;;46.90;42.90;;;;;;;7.45;100.00;97792.70;108976;1295;22808;-86
2023/03/21 05:28:30;;;;;;;46.70;42.70;;;;;;;7.43;100.00;97798.19;108912;1295;22175;-87
2023/03/21 05:30:59;;;;;;;48.10;44.10;;;;;;;7.44;100.00;97792.12;109050;1295;23123;-86
2023/03/21 05:33:27;;;;;;;38.00;34.70;;;;;;;7.45;100.00;97796.79;109201;1295;22215;-85
2023/03/21 05:35:55;;;;;;;46.20;42.10;;;;;;;7.47;100.00;97798.41;109002;1296;22202;-85
2023/03/21 05:38:24;;;;;;;45.30;41.30;;;;;;;7.48;100.00;97802.02;108978;1295;22221;-86
2023/03/21 05:40:53;;;;;;;41.10;37.60;;;;;;;7.50;100.00;97801.67;108901;1295;22232;-87
2023/03/21 05:43:22;;;;;;;46.60;42.40;;;;;;;7.52;100.00;97801.18;109002;1295;22116;-88
2023/03/21 05:45:51;;;;;;;49.50;45.40;;;;;;;7.54;100.00;97804.42;109034;1295;22862;-89
2023/03/21 05:48:19;;;;;;;51.50;46.70;;;;;;;7.54;100.00;97800.95;108984;1293;22187;-90
2023/03/21 05:51:10;;;;;;;49.30;44.90;;;;;;;7.57;100.00;97803.45;109027;1276;22219;-90
2023/03/21 05:53:39;;;;;;;176.00;80.80;;;;;;;7.61;100.00;97805.94;109062;1295;21937;-91
2023/03/21 05:56:13;;;;;;;180.30;82.20;;;;;;;7.60;100.00;97806.58;109236;1276;23584;31
2023/03/21 05:58:54;;;;;;;171.50;80.40;;;;;;;7.58;100.00;97806.70;109269;1293;22760;-92
2023/03/21 06:01:23;;;;;;;76.60;60.70;;;;;;;7.58;100.00;97807.67;109442;1293;22152;-89
2023/03/21 06:03:56;;;;;;;53.30;47.80;;;;;;;7.57;100.00;97809.60;109305;1293;22554;-92
2023/03/21 06:06:28;;;;;;;50.40;45.80;;;;;;;7.57;100.00;97810.95;109058;1293;22218;-88
2023/03/21 06:09:00;;;;;;;33.50;30.40;;;;;;;7.57;100.00;97816.21;109117;1293;22852;-86
2023/03/21 06:11:32;;;;;;;31.30;28.70;;;;;;;7.54;100.00;97814.30;109006;1293;22187;-87
2023/03/21 06:14:19;;;;;;;32.40;29.40;;;;;;;7.51;100.00;97810.34;109293;1293;22179;-87
2023/03/21 06:17:07;;;;;;;30.20;27.50;;;;;;;7.51;100.00;97814.86;109303;1293;22224;-87
2023/03/21 06:19:39;;;;;;;28.70;26.10;;;;;;;7.47;100.00;97814.52;109271;1293;23024;-87
2023/03/21 06:22:13;;;;;;;30.50;27.90;;;;;;;7.47;100.00;97816.97;109140;1293;22062;-88
2023/03/21 06:24:42;;;;;;;28.10;25.60;;;;;;;7.49;100.00;97818.30;109117;1293;22125;-85
2023/03/21 06:27:11;;;;;;;28.70;26.00;;;;;;;7.51;100.00;97817.98;109034;1293;22149;-86
2023/03/21 06:29:49;;;;;;;30.70;27.70;;;;;;;7.49;100.00;97820.71;109285;1293;22133;-87
2023/03/21 06:32:18;;;;;;;27.60;25.00;;;;;;;7.48;100.00;97819.43;109260;1293;22867;-87
2023/03/21 06:34:46;;;;;;;26.50;24.10;;;;;;;7.50;100.00;97822.05;109053;1293;22380;-88
2023/03/21 06:37:15;;;;;;;29.20;26.50;;;;;;;7.49;100.00;97823.50;109301;1293;22120;-88
2023/03/21 06:39:43;;;;;;;32.90;30.10;;;;;;;7.53;100.00;97818.91;109185;1293;22453;-89
2023/03/21 06:42:13;;;;;;;30.40;27.60;;;;;;;7.59;100.00;97814.57;109085;1293;22227;-88
2023/03/21 06:44:42;;;;;;;31.50;28.60;;;;;;;7.62;100.00;97816.54;109006;1294;22151;-89
2023/03/21 06:47:13;;;;;;;35.00;31.70;;;;;;;7.65;100.00;97818.66;109133;1294;22114;-89
2023/03/21 06:49:42;;;;;;;39.70;36.10;;;;;;;7.71;100.00;97813.56;109063;1294;22172;-89
2023/03/21 06:52:12;;;;;;;265.20;119.30;;;;;;;7.74;100.00;97818.84;109135;1294;22188;-87
2023/03/21 06:54:41;;;;;;;189.10;95.40;;;;;;;7.80;100.00;97817.73;109100;1294;22144;-88
2023/03/21 06:57:12;;;;;;;46.60;42.10;;;;;;;7.86;100.00;97820.23;109204;1294;22175;-89
2023/03/21 06:59:40;;;;;;;40.20;36.80;;;;;;;7.91;100.00;97823.84;109406;1294;22906;-87
2023/03/21 07:02:13;;;;;;;35.50;32.30;;;;;;;7.93;100.00;97821.30;109447;1294;22158;-88
2023/03/21 07:04:47;;;;;;;33.70;30.90;;;;;;;7.94;100.00;97822.16;109333;1294;21886;-88
2023/03/21 07:07:19;;;;;;;32.10;29.20;;;;;;;7.96;100.00;97825.56;109272;1294;22167;-87
2023/03/21 07:09:47;;;;;;;30.40;27.60;;;;;;;7.99;100.00;97820.45;109692;1294;22140;-88
2023/03/21 07:12:16;;;;;;;33.50;30.70;;;;;;;7.99;100.00;97822.75;109364;1294;22349;-88
2023/03/21 07:15:11;;;;;;;33.00;29.90;;;;;;;7.99;100.00;97827.20;109149;1294;22214;-88
2023/03/21 07:17:39;;;;;;;27.30;24.80;;;;;;;7.96;100.00;97828.35;109084;1294;22406;-88
2023/03/21 07:20:08;;;;;;;26.50;24.20;;;;;;;7.93;100.00;97826.98;109401;1294;22138;-87
2023/03/21 07:22:37;;;;;;;29.50;27.00;;;;;;;7.94;100.00;97832.98;109429;1294;22135;-89
2023/03/21 07:25:06;;;;;;;26.40;23.90;;;;;;;8.02;100.00;97831.15;109016;1294;22170;-88
2023/03/21 07:27:41;;;;;;;26.20;23.90;;;;;;;8.11;100.00;97830.52;109289;1294;22996;-89
2023/03/21 07:30:09;;;;;;;22.30;20.30;;;;;;;8.17;100.00;97831.58;109353;1294;22196;-88
2023/03/21 07:32:44;;;;;;;25.30;23.20;;;;;;;8.22;100.00;97830.36;108978;1294;22124;-86
2023/03/21 07:35:14;;;;;;;26.00;23.60;;;;;;;8.19;100.00;97831.66;109197;1294;22179;-89
2023/03/21 07:37:43;;;;;;;23.60;21.50;;;;;;;8.12;100.00;97834.43;109184;1294;22219;-87
2023/03/21 07:40:15;;;;;;;22.00;20.00;;;;;;;8.08;100.00;97837.21;109276;1295;23331;-87
2023/03/21 07:42:43;;;;;;;23.60;21.40;;;;;;;8.03;100.00;97839.67;109017;1294;22212;-87
2023/03/21 07:45:19;;;;;;;23.10;21.10;;;;;;;7.97;100.00;97840.73;109012;1294;23030;-87
2023/03/21 07:47:48;;;;;;;23.80;21.70;;;;;;;7.97;100.00;97843.73;109292;1295;22239;-86
2023/03/21 07:50:17;;;;;;;25.70;23.40;;;;;;;7.96;100.00;97841.29;109336;1291;22119;-87
2023/03/21 07:52:45;;;;;;;26.90;24.70;;;;;;;7.87;100.00;97845.13;109019;1294;22160;-86
2023/03/21 07:55:13;;;;;;;27.40;25.10;;;;;;;7.85;100.00;97847.30;109128;1294;22181;-88
2023/03/21 07:57:42;;;;;;;29.30;26.50;;;;;;;7.86;100.00;97847.39;108975;1294;22338;-88
2023/03/21 08:00:12;;;;;;;28.00;25.60;;;;;;;7.87;100.00;97852.05;109317;1294;22993;-88
2023/03/21 08:02:41;;;;;;;30.10;27.60;;;;;;;7.88;100.00;97852.35;109342;1294;22217;-86
2023/03/21 08:05:11;;;;;;;28.50;26.10;;;;;;;7.91;100.00;97857.65;109098;1294;22129;-88
2023/03/21 08:07:40;;;;;;;32.30;29.50;;;;;;;7.92;100.00;97854.65;109039;1294;22115;-88
2023/03/21 08:10:10;;;;;;;29.10;26.70;;;;;;;7.94;100.00;97856.96;109006;1294;22216;-88
2023/03/21 08:12:38;;;;;;;28.00;25.70;;;;;;;7.95;100.00;97856.48;109239;1294;22128;-88
2023/03/21 08:15:07;;;;;;;30.80;28.30;;;;;;;7.95;100.00;97856.59;109322;1294;22233;-88
2023/03/21 08:17:36;;;;;;;32.70;30.00;;;;;;;7.95;100.00;97857.02;109111;1294;22231;-88
2023/03/21 08:20:07;;;;;;;29.30;26.80;;;;;;;7.99;100.00;97857.95;109095;1294;22267;-87
2023/03/21 08:22:36;;;;;;;30.50;28.00;;;;;;;7.99;100.00;97858.33;109381;1294;22120;-88
2023/03/21 08:25:06;;;;;;;29.30;26.80;;;;;;;8.00;100.00;97860.25;109342;1294;22159;-88
2023/03/21 08:27:35;;;;;;;28.10;25.80;;;;;;;8.02;100.00;97861.30;109156;1294;22164;-88
2023/03/21 08:30:03;;;;;;;27.20;24.90;;;;;;;7.99;100.00;97863.27;109283;1294;22334;-88
2023/03/21 08:32:32;;;;;;;29.60;27.10;;;;;;;8.00;100.00;97857.89;109282;1295;22152;-87
2023/03/21 08:35:02;;;;;;;31.60;28.80;;;;;;;8.01;100.00;97862.86;109027;1294;22131;-87
2023/03/21 08:37:31;;;;;;;36.10;33.10;;;;;;;8.03;100.00;97861.66;109267;1294;22255;-88
2023/03/21 08:39:59;;;;;;;40.60;37.20;;;;;;;8.02;100.00;97865.16;108955;1294;22154;-86
2023/03/21 08:42:27;;;;;;;42.10;38.60;;;;;;;7.99;100.00;97866.05;109297;1294;22189;-86
2023/03/21 08:44:55;;;;;;;38.80;35.40;;;;;;;8.03;100.00;97866.77;109329;1292;22170;-87
2023/03/21 08:47:23;;;;;;;42.40;38.50;;;;;;;8.10;100.00;97867.55;109296;1294;22238;-87
2023/03/21 08:49:52;;;;;;;49.80;45.40;;;;;;;8.20;100.00;97868.44;108962;1294;22122;-86
2023/03/21 08:52:20;;;;;;;51.50;46.70;;;;;;;8.28;100.00;97868.99;109013;1293;22278;-88
2023/03/21 08:54:48;;;;;;;45.30;41.10;;;;;;;8.34;100.00;97870.59;109051;1294;22115;-87
2023/03/21 08:57:16;;;;;;;49.90;45.50;;;;;;;8.42;100.00;97869.36;109058;1294;22214;-89
2023/03/21 08:59:44;;;;;;;50.70;46.10;;;;;;;8.47;100.00;97871.99;109301;1294;22203;-88
2023/03/21 09:02:14;;;;;;;46.50;42.30;;;;;;;8.57;100.00;97875.33;108815;1294;22136;-86
2023/03/21 09:04:43;;;;;;;50.60;46.10;;;;;;;8.63;100.00;97874.88;109213;1294;22154;-87
2023/03/21 09:07:13;;;;;;;50.60;46.30;;;;;;;8.63;100.00;97873.48;109376;1294;22173;-86
2023/03/21 09:10:10;;;;;;;53.60;48.50;;;;;;;8.60;100.00;97876.84;109226;1294;22214;-88
2023/03/21 09:12:50;;;;;;;52.10;47.40;;;;;;;8.57;100.00;97876.77;108983;1294;22199;-88
2023/03/21 09:15:20;;;;;;;48.50;44.30;;;;;;;8.64;100.00;97879.66;109195;1294;22914;-87
2023/03/21 09:17:51;;;;;;;47.10;43.10;;;;;;;8.70;100.00;97872.59;109184;1294;22135;-88
2023/03/21 09:20:24;;;;;;;48.40;44.50;;;;;;;8.77;100.00;97879.61;109172;1294;22174;-87
2023/03/21 09:22:53;;;;;;;49.30;45.10;;;;;;;8.89;100.00;97877.89;108864;1294;22217;-87
2023/03/21 09:25:22;;;;;;;50.90;46.70;;;;;;;8.95;100.00;97876.11;108872;1294;22821;-87
2023/03/21 09:27:52;;;;;;;50.20;46.00;;;;;;;8.99;100.00;97876.15;109196;1294;22233;-87
2023/03/21 09:30:21;;;;;;;47.30;43.40;;;;;;;9.02;100.00;97877.40;109203;1294;22851;-87
2023/03/21 09:32:54;;;;;;;47.30;43.50;;;;;;;9.04;100.00;97881.05;108931;1294;22118;-86
2023/03/21 09:35:23;;;;;;;51.10;46.90;;;;;;;9.04;100.00;97887.61;109146;1294;22156;-87
2023/03/21 09:37:52;;;;;;;48.00;43.80;;;;;;;9.01;100.00;97885.96;109059;1294;22270;-87
2023/03/21 09:40:44;;;;;;;44.70;40.80;;;;;;;8.98;100.00;97884.51;109211;1294;22221;-87
2023/03/21 09:43:12;;;;;;;42.20;38.60;;;;;;;8.94;100.00;97886.43;108937;1294;22854;-87
2023/03/21 09:46:10;;;;;;;38.50;35.30;;;;;;;8.90;100.00;97885.30;109197;1292;22192;-87
2023/03/21 09:48:44;;;;;;;39.50;36.00;;;;;;;8.92;100.00;97887.27;108898;1294;22249;-87
2023/03/21 09:51:27;;;;;;;42.20;38.60;;;;;;;8.91;100.00;97890.60;108971;1294;22018;-87
2023/03/21 09:54:02;;;;;;;47.20;43.10;;;;;;;8.95;100.00;97887.61;109198;1294;22922;-86
2023/03/21 09:56:30;;;;;;;41.50;38.20;;;;;;;8.99;100.00;97888.14;109205;1294;22126;-86
2023/03/21 09:59:00;;;;;;;38.00;34.90;;;;;;;9.00;100.00;97882.59;108938;1294;22940;-86
2023/03/21 10:01:34;;;;;;;47.90;43.70;;;;;;;9.02;100.00;97883.48;109219;1294;22239;-87
2023/03/21 10:04:05;;;;;;;44.80;41.00;;;;;;;9.10;99.99;97881.73;109024;1294;22717;-86
2023/03/21 10:06:38;;;;;;;48.10;44.00;;;;;;;9.14;100.00;97876.66;109479;1294;22658;-88
2023/03/21 10:09:11;;;;;;;42.00;38.50;;;;;;;9.23;99.80;97883.54;109480;1294;22819;-87
2023/03/21 10:11:49;;;;;;;46.70;42.70;;;;;;;9.25;98.89;97881.52;108932;1294;22146;-87
2023/03/21 10:14:29;;;;;;;47.50;43.30;;;;;;;9.27;98.83;97882.88;109119;1294;22141;-87
2023/03/21 10:17:03;;;;;;;38.80;35.40;;;;;;;9.33;98.83;97881.85;108931;1294;23100;-87
2023/03/21 10:19:31;;;;;;;37.40;34.30;;;;;;;9.33;97.58;97884.89;108934;1294;22287;-87
2023/03/21 10:22:00;;;;;;;40.50;37.00;;;;;;;9.31;97.49;97881.33;109182;1294;22229;-87
2023/03/21 10:24:32;;;;;;;41.30;37.50;;;;;;;9.32;96.77;97884.23;108959;1294;285751;-87
2023/03/21 10:27:02;;;;;;;39.70;36.00;;;;;;;9.31;96.56;97884.98;109110;1294;22236;-87
2023/03/21 10:29:43;;;;;;;39.40;36.00;;;;;;;9.32;97.14;97880.39;108915;1294;22962;-87
2023/03/21 10:32:16;;;;;;;46.20;42.00;;;;;;;9.39;96.82;97882.95;108984;1294;22333;-86
2023/03/21 10:34:49;;;;;;;47.80;43.80;;;;;;;9.42;96.86;97879.93;109125;1294;22187;-86
2023/03/21 10:37:18;;;;;;;44.50;40.80;;;;;;;9.43;95.66;97882.70;109175;1291;22240;-87
2023/03/21 10:39:50;;;;;;;43.30;39.50;;;;;;;9.35;95.27;97885.14;109191;1292;22278;-86
2023/03/21 10:42:24;;;;;;;45.50;41.30;;;;;;;9.36;96.14;97885.61;108986;1294;22354;-87
2023/03/21 10:44:55;;;;;;;;;;;;;;;9.42;96.06;97884.88;109202;1294;22397;-87
2023/03/21 10:47:25;;;;;;;47.50;43.30;;;;;;;9.44;95.60;97885.88;108979;1285;22136;-87
2023/03/21 10:49:54;;;;;;;47.40;43.40;;;;;;;9.47;95.58;97890.92;108986;1295;22163;-87
2023/03/21 10:52:50;;;;;;;45.90;41.80;;;;;;;9.49;94.49;97886.18;109214;1290;22245;-86
2023/03/21 10:55:34;;;;;;;45.40;41.50;;;;;;;9.50;93.77;97888.64;109111;1294;22193;-87
2023/03/21 10:58:09;;;;;;;46.10;42.30;;;;;;;9.48;92.92;97884.84;109246;1294;22795;-87
2023/03/21 11:00:40;;;;;;;49.00;44.50;;;;;;;9.44;91.52;97885.98;109012;1294;22598;-87
2023/03/21 11:03:21;;;;;;;46.70;42.70;;;;;;;9.43;92.68;97890.30;109033;1294;22176;-87
2023/03/21 11:06:22;;;;;;;47.70;43.60;;;;;;;9.45;91.23;97888.86;109214;1294;22981;-87
2023/03/21 11:08:54;;;;;;;50.60;46.30;;;;;;;9.42;91.66;97895.09;109130;1294;22264;-87
2023/03/21 11:11:33;;;;;;;69.10;62.90;;;;;;;9.44;91.82;97888.45;109093;1294;22978;-87
2023/03/21 11:14:08;;;;;;;74.00;66.30;;;;;;;9.47;89.56;97893.89;108964;1294;23029;-86
2023/03/21 11:16:40;;;;;;;53.20;48.20;;;;;;;9.41;89.57;97885.27;108884;1294;22988;-87
2023/03/21 11:19:18;;;;;;;52.10;47.20;;;;;;;9.42;87.90;97892.94;108973;1294;22155;-87
2023/03/21 11:21:46;;;;;;;53.70;48.50;;;;;;;9.36;87.91;97887.27;109108;1294;22084;-86
2023/03/21 11:24:19;;;;;;;46.00;42.00;;;;;;;9.32;87.93;97888.77;108932;1294;22202;-87
2023/03/21 11:26:49;;;;;;;47.70;43.40;;;;;;;9.31;87.70;97892.02;108997;1294;22973;-86
2023/03/21 11:29:50;;;;;;;47.50;43.10;;;;;;;9.28;88.40;97886.05;108970;1294;22210;-85
2023/03/21 11:32:36;;;;;;;49.10;44.80;;;;;;;9.33;89.05;97883.12;108324;1302;22231;-85
2023/03/21 11:35:11;;;;;;;44.00;40.20;;;;;;;9.34;88.53;97881.01;108302;1302;22963;-86
2023/03/21 11:37:52;;;;;;;46.10;42.10;;;;;;;9.39;88.55;97878.80;108181;1302;22838;-86
2023/03/21 11:40:22;;;;;;;43.40;39.50;;;;;;;9.44;88.76;97883.07;108226;1302;22251;-86
2023/03/21 11:42:51;;;;;;;39.30;35.80;;;;;;;9.49;86.84;97883.21;108284;1302;22969;-86
2023/03/21 11:45:23;;;;;;;44.10;40.10;;;;;;;9.47;86.49;97878.23;108296;1302;22856;-86
2023/03/21 11:47:54;;;;;;;39.40;36.10;;;;;;;9.54;87.17;97877.75;108338;1302;22333;-86